createdAt,value
2023-04-18T01:31:38.544Z,17.35
2023-04-18T01:34:06.583Z,18.75
2023-04-18T02:40:18.961Z,22.10
2023-04-18T02:42:46.348Z,22.58
2023-04-18T04:50:41.654Z,10.50
2023-04-18T04:53:09.295Z,11.13
2023-04-18T04:55:36.532Z,11.13
2023-04-18T04:58:03.560Z,10.70
2023-04-18T05:00:30.552Z,10.38
2023-04-18T05:02:57.769Z,10.40
2023-04-18T05:05:24.848Z,11.15
2023-04-18T05:07:52.092Z,14.43
2023-04-18T05:10:19.408Z,16.15
2023-04-18T05:12:46.428Z,13.43
2023-04-18T05:15:15.876Z,13.68
2023-04-18T05:17:43.023Z,14.77
2023-04-18T05:20:10.408Z,14.05
2023-04-18T05:22:37.413Z,11.20
2023-04-18T05:25:04.812Z,12.10
2023-04-18T05:27:31.736Z,12.07
2023-04-18T05:29:58.633Z,12.80
2023-04-18T05:32:25.704Z,12.70
2023-04-18T05:34:52.633Z,12.50
2023-04-18T05:37:20.369Z,11.75
2023-04-18T05:39:47.395Z,11.93
2023-04-18T05:42:14.307Z,11.82
2023-04-18T05:44:42.220Z,12.23
2023-04-18T05:47:09.355Z,12.25
2023-04-18T05:49:36.298Z,13.68
2023-04-18T05:52:03.572Z,14.38
2023-04-18T05:54:30.536Z,14.23
2023-04-18T05:56:57.551Z,14.70
2023-04-18T05:59:25.127Z,15.52
2023-04-18T06:01:52.022Z,17.67
2023-04-18T06:04:20.692Z,18.40
2023-04-18T06:06:48.182Z,17.63
2023-04-18T06:09:15.258Z,18.85
2023-04-18T06:11:42.287Z,18.73
2023-04-18T06:14:09.453Z,17.40
2023-04-18T06:16:37.662Z,22.35
2023-04-18T06:19:05.463Z,27.05
2023-04-18T06:21:32.404Z,16.52
2023-04-18T06:24:01.486Z,14.02
2023-04-18T06:26:28.554Z,12.82
2023-04-18T06:28:56.032Z,11.77
2023-04-18T06:31:23.059Z,12.73
2023-04-18T06:33:50.174Z,11.00
2023-04-18T06:36:17.157Z,12.25
2023-04-18T06:38:44.013Z,12.60
2023-04-18T06:41:11.049Z,13.70
2023-04-18T06:43:38.029Z,13.02
2023-04-18T06:46:05.629Z,13.20
2023-04-18T06:48:32.682Z,14.07
2023-04-18T06:50:59.625Z,14.70
2023-04-18T06:53:26.729Z,15.70
2023-04-18T12:17:46.619Z,4.45
2023-04-18T12:20:14.290Z,4.57
2023-04-18T12:22:43.868Z,5.13
2023-04-18T12:25:25.158Z,4.70
2023-04-18T12:28:01.985Z,4.80
2023-04-18T12:30:31.428Z,4.85
2023-04-18T12:33:01.925Z,5.10
2023-04-18T12:35:30.777Z,4.77
2023-04-18T12:38:00.343Z,4.32
2023-04-18T12:40:28.000Z,4.70
2023-04-18T12:42:56.085Z,5.82
2023-04-18T12:45:24.094Z,5.13
2023-04-18T12:47:52.115Z,5.40
2023-04-18T13:51:57.483Z,10.27
2023-04-18T13:54:29.503Z,9.63
